sensor_id;sensor_type;location;lat;lon;timestamp;P1;durP1;ratioP1;P2;durP2;ratioP2
35667;SDS011;22158;59.280;17.806;2023-03-21T05:02:02;3.40;;;2.13;;
35667;SDS011;22158;59.280;17.806;2023-03-21T05:04:28;3.28;;;2.20;;
35667;SDS011;22158;59.280;17.806;2023-03-21T05:06:54;2.83;;;2.30;;
35667;SDS011;22158;59.280;17.806;2023-03-21T05:09:20;4.18;;;2.78;;
35667;SDS011;22158;59.280;17.806;2023-03-21T05:11:46;6.38;;;3.33;;
35667;SDS011;22158;59.280;17.806;2023-03-21T05:14:13;5.35;;;3.17;;
35667;SDS011;22158;59.280;17.806;2023-03-21T05:16:42;4.93;;;3.22;;
35667;SDS011;22158;59.280;17.806;2023-03-21T05:19:12;10.15;;;3.10;;
35667;SDS011;22158;59.280;17.806;2023-03-21T05:21:39;7.03;;;3.13;;
35667;SDS011;22158;59.280;17.806;2023-03-21T05:24:06;5.20;;;2.63;;
35667;SDS011;22158;59.280;17.806;2023-03-21T05:26:36;6.00;;;3.67;;
35667;SDS011;22158;59.280;17.806;2023-03-21T05:29:02;7.03;;;2.88;;
35667;SDS011;22158;59.280;17.806;2023-03-21T05:31:28;6.57;;;3.10;;
35667;SDS011;22158;59.280;17.806;2023-03-21T05:33:54;6.95;;;2.78;;
35667;SDS011;22158;59.280;17.806;2023-03-21T05:36:19;4.68;;;2.47;;
35667;SDS011;22158;59.280;17.806;2023-03-21T05:38:45;3.67;;;2.63;;
35667;SDS011;22158;59.280;17.806;2023-03-21T05:41:11;4.70;;;2.63;;
35667;SDS011;22158;59.280;17.806;2023-03-21T05:43:38;7.13;;;2.70;;
35667;SDS011;22158;59.280;17.806;2023-03-21T05:46:04;4.25;;;2.97;;
35667;SDS011;22158;59.280;17.806;2023-03-21T05:48:30;5.63;;;2.70;;
35667;SDS011;22158;59.280;17.806;2023-03-21T05:50:55;5.72;;;2.53;;
35667;SDS011;22158;59.280;17.806;2023-03-21T05:53:21;7.07;;;3.22;;
35667;SDS011;22158;59.280;17.806;2023-03-21T05:55:46;5.78;;;3.08;;
35667;SDS011;22158;59.280;17.806;2023-03-21T05:58:12;4.97;;;2.78;;
35667;SDS011;22158;59.280;17.806;2023-03-21T06:00:38;7.07;;;3.85;;
35667;SDS011;22158;59.280;17.806;2023-03-21T06:03:03;4.20;;;2.83;;
35667;SDS011;22158;59.280;17.806;2023-03-21T06:05:29;3.10;;;2.22;;
35667;SDS011;22158;59.280;17.806;2023-03-21T06:07:55;4.55;;;2.83;;
35667;SDS011;22158;59.280;17.806;2023-03-21T06:10:21;3.80;;;2.67;;
35667;SDS011;22158;59.280;17.806;2023-03-21T06:12:46;3.70;;;2.50;;
35667;SDS011;22158;59.280;17.806;2023-03-21T06:15:12;4.25;;;2.53;;
35667;SDS011;22158;59.280;17.806;2023-03-21T06:17:37;8.00;;;2.92;;
35667;SDS011;22158;59.280;17.806;2023-03-21T06:20:05;5.13;;;2.70;;
35667;SDS011;22158;59.280;17.806;2023-03-21T06:22:32;4.15;;;2.83;;
35667;SDS011;22158;59.280;17.806;2023-03-21T06:24:58;5.22;;;3.17;;
35667;SDS011;22158;59.280;17.806;2023-03-21T06:27:24;2.78;;;2.35;;
35667;SDS011;22158;59.280;17.806;2023-03-21T06:29:50;3.90;;;2.25;;
35667;SDS011;22158;59.280;17.806;2023-03-21T06:32:16;3.17;;;2.22;;
35667;SDS011;22158;59.280;17.806;2023-03-21T06:34:41;2.85;;;2.17;;
35667;SDS011;22158;59.280;17.806;2023-03-21T06:37:07;2.72;;;2.08;;
35667;SDS011;22158;59.280;17.806;2023-03-21T06:39:33;4.80;;;2.47;;
35667;SDS011;22158;59.280;17.806;2023-03-21T06:41:59;4.40;;;2.65;;
35667;SDS011;22158;59.280;17.806;2023-03-21T06:44:25;2.67;;;1.90;;
35667;SDS011;22158;59.280;17.806;2023-03-21T06:46:51;3.67;;;2.03;;
35667;SDS011;22158;59.280;17.806;2023-03-21T06:49:17;4.90;;;2.30;;
35667;SDS011;22158;59.280;17.806;2023-03-21T06:51:44;3.25;;;2.08;;
35667;SDS011;22158;59.280;17.806;2023-03-21T06:54:09;3.30;;;2.10;;
35667;SDS011;22158;59.280;17.806;2023-03-21T06:56:35;3.10;;;1.80;;
35667;SDS011;22158;59.280;17.806;2023-03-21T06:59:01;3.08;;;2.15;;
35667;SDS011;22158;59.280;17.806;2023-03-21T07:01:27;4.20;;;2.10;;
35667;SDS011;22158;59.280;17.806;2023-03-21T07:03:54;3.25;;;1.92;;
35667;SDS011;22158;59.280;17.806;2023-03-21T07:06:21;3.28;;;2.03;;
35667;SDS011;22158;59.280;17.806;2023-03-21T07:08:47;2.97;;;2.00;;
35667;SDS011;22158;59.280;17.806;2023-03-21T07:11:12;4.95;;;2.20;;
35667;SDS011;22158;59.280;17.806;2023-03-21T07:13:38;4.00;;;2.00;;
35667;SDS011;22158;59.280;17.806;2023-03-21T07:16:04;4.88;;;2.42;;
35667;SDS011;22158;59.280;17.806;2023-03-21T07:18:30;2.95;;;1.75;;
35667;SDS011;22158;59.280;17.806;2023-03-21T07:20:56;3.83;;;2.38;;
35667;SDS011;22158;59.280;17.806;2023-03-21T07:23:24;3.03;;;2.08;;
35667;SDS011;22158;59.280;17.806;2023-03-21T07:25:51;2.78;;;1.83;;
35667;SDS011;22158;59.280;17.806;2023-03-21T07:28:17;7.93;;;2.50;;
35667;SDS011;22158;59.280;17.806;2023-03-21T07:30:43;3.38;;;2.10;;
35667;SDS011;22158;59.280;17.806;2023-03-21T07:33:09;5.63;;;2.42;;
35667;SDS011;22158;59.280;17.806;2023-03-21T07:35:36;5.88;;;2.40;;
35667;SDS011;22158;59.280;17.806;2023-03-21T07:38:02;3.22;;;1.85;;
35667;SDS011;22158;59.280;17.806;2023-03-21T07:40:29;2.80;;;2.10;;
35667;SDS011;22158;59.280;17.806;2023-03-21T07:42:55;5.15;;;2.45;;
35667;SDS011;22158;59.280;17.806;2023-03-21T07:45:21;4.18;;;2.13;;
35667;SDS011;22158;59.280;17.806;2023-03-21T07:47:49;3.35;;;2.35;;
35667;SDS011;22158;59.280;17.806;2023-03-21T07:50:15;4.22;;;2.28;;
35667;SDS011;22158;59.280;17.806;2023-03-21T07:52:41;2.80;;;2.08;;
35667;SDS011;22158;59.280;17.806;2023-03-21T07:55:07;3.15;;;2.17;;
35667;SDS011;22158;59.280;17.806;2023-03-21T07:57:33;4.15;;;2.10;;
35667;SDS011;22158;59.280;17.806;2023-03-21T08:00:00;3.65;;;2.40;;
35667;SDS011;22158;59.280;17.806;2023-03-21T08:02:26;5.68;;;2.22;;
35667;SDS011;22158;59.280;17.806;2023-03-21T08:04:51;4.40;;;2.22;;
35667;SDS011;22158;59.280;17.806;2023-03-21T08:07:17;5.10;;;2.80;;
35667;SDS011;22158;59.280;17.806;2023-03-21T08:09:43;4.43;;;2.45;;
35667;SDS011;22158;59.280;17.806;2023-03-21T08:12:08;2.78;;;1.92;;
35667;SDS011;22158;59.280;17.806;2023-03-21T08:14:34;6.57;;;2.47;;
35667;SDS011;22158;59.280;17.806;2023-03-21T08:17:01;4.03;;;2.05;;
35667;SDS011;22158;59.280;17.806;2023-03-21T08:19:27;3.78;;;2.35;;
35667;SDS011;22158;59.280;17.806;2023-03-21T08:21:53;3.95;;;2.30;;
35667;SDS011;22158;59.280;17.806;2023-03-21T08:24:18;4.28;;;2.40;;
35667;SDS011;22158;59.280;17.806;2023-03-21T08:26:44;5.72;;;2.70;;
35667;SDS011;22158;59.280;17.806;2023-03-21T08:29:11;6.47;;;2.20;;
35667;SDS011;22158;59.280;17.806;2023-03-21T08:31:38;5.30;;;2.65;;
35667;SDS011;22158;59.280;17.806;2023-03-21T08:34:04;5.13;;;2.40;;
35667;SDS011;22158;59.280;17.806;2023-03-21T08:36:31;3.33;;;2.30;;
35667;SDS011;22158;59.280;17.806;2023-03-21T08:38:57;6.72;;;1.98;;
35667;SDS011;22158;59.280;17.806;2023-03-21T08:41:29;3.35;;;1.65;;
35667;SDS011;22158;59.280;17.806;2023-03-21T08:43:59;2.20;;;1.60;;
35667;SDS011;22158;59.280;17.806;2023-03-21T08:46:25;4.25;;;1.80;;
35667;SDS011;22158;59.280;17.806;2023-03-21T08:48:51;2.28;;;1.40;;
35667;SDS011;22158;59.280;17.806;2023-03-21T08:51:18;3.58;;;1.45;;
35667;SDS011;22158;59.280;17.806;2023-03-21T08:53:44;2.08;;;1.45;;
35667;SDS011;22158;59.280;17.806;2023-03-21T08:56:09;1.70;;;1.30;;
35667;SDS011;22158;59.280;17.806;2023-03-21T08:58:36;2.58;;;1.25;;
35667;SDS011;22158;59.280;17.806;2023-03-21T09:01:02;2.88;;;1.58;;
35667;SDS011;22158;59.280;17.806;2023-03-21T09:03:28;2.75;;;1.58;;
35667;SDS011;22158;59.280;17.806;2023-03-21T09:05:54;1.27;;;1.13;;
35667;SDS011;22158;59.280;17.806;2023-03-21T09:08:21;1.90;;;1.38;;
35667;SDS011;22158;59.280;17.806;2023-03-21T09:10:52;1.50;;;0.90;;
35667;SDS011;22158;59.280;17.806;2023-03-21T09:13:19;1.73;;;1.13;;
35667;SDS011;22158;59.280;17.806;2023-03-21T09:15:45;3.20;;;1.13;;
35667;SDS011;22158;59.280;17.806;2023-03-21T09:18:11;2.55;;;1.10;;
35667;SDS011;22158;59.280;17.806;2023-03-21T09:20:37;1.42;;;0.73;;
35667;SDS011;22158;59.280;17.806;2023-03-21T09:23:04;2.15;;;1.00;;
35667;SDS011;22158;59.280;17.806;2023-03-21T09:25:30;1.65;;;1.05;;
35667;SDS011;22158;59.280;17.806;2023-03-21T09:27:56;1.75;;;0.90;;
35667;SDS011;22158;59.280;17.806;2023-03-21T09:30:22;1.10;;;0.70;;
35667;SDS011;22158;59.280;17.806;2023-03-21T09:32:49;1.52;;;0.90;;
35667;SDS011;22158;59.280;17.806;2023-03-21T09:35:16;3.40;;;0.90;;
35667;SDS011;22158;59.280;17.806;2023-03-21T09:37:43;1.52;;;0.85;;
35667;SDS011;22158;59.280;17.806;2023-03-21T09:40:17;1.05;;;0.70;;
35667;SDS011;22158;59.280;17.806;2023-03-21T09:43:09;0.80;;;0.68;;
35667;SDS011;22158;59.280;17.806;2023-03-21T09:45:54;1.48;;;1.08;;
35667;SDS011;22158;59.280;17.806;2023-03-21T09:48:44;2.00;;;0.75;;
35667;SDS011;22158;59.280;17.806;2023-03-21T09:51:27;1.70;;;0.80;;
35667;SDS011;22158;59.280;17.806;2023-03-21T09:53:56;3.40;;;0.90;;
35667;SDS011;22158;59.280;17.806;2023-03-21T09:56:27;1.10;;;0.80;;
35667;SDS011;22158;59.280;17.806;2023-03-21T09:58:55;1.10;;;0.73;;
35667;SDS011;22158;59.280;17.806;2023-03-21T10:01:25;1.25;;;0.70;;
35667;SDS011;22158;59.280;17.806;2023-03-21T10:04:01;0.45;;;0.45;;
35667;SDS011;22158;59.280;17.806;2023-03-21T10:06:30;2.85;;;2.13;;
35667;SDS011;22158;59.280;17.806;2023-03-21T10:08:59;0.95;;;0.68;;
35667;SDS011;22158;59.280;17.806;2023-03-21T10:11:39;0.95;;;0.60;;
35667;SDS011;22158;59.280;17.806;2023-03-21T10:14:13;0.50;;;0.50;;
35667;SDS011;22158;59.280;17.806;2023-03-21T10:16:44;1.20;;;0.63;;
35667;SDS011;22158;59.280;17.806;2023-03-21T10:19:14;1.33;;;0.80;;
35667;SDS011;22158;59.280;17.806;2023-03-21T10:21:42;1.55;;;0.85;;
35667;SDS011;22158;59.280;17.806;2023-03-21T10:24:11;4.10;;;2.13;;
35667;SDS011;22158;59.280;17.806;2023-03-21T10:26:40;1.88;;;1.23;;
35667;SDS011;22158;59.280;17.806;2023-03-21T10:29:08;4.25;;;1.50;;
35667;SDS011;22158;59.280;17.806;2023-03-21T10:31:36;1.35;;;1.20;;
35667;SDS011;22158;59.280;17.806;2023-03-21T10:34:07;0.57;;;0.57;;
35667;SDS011;22158;59.280;17.806;2023-03-21T10:36:42;1.15;;;0.80;;
35667;SDS011;22158;59.280;17.806;2023-03-21T10:39:26;1.60;;;1.13;;
35667;SDS011;22158;59.280;17.806;2023-03-21T10:42:01;1.92;;;0.77;;
35667;SDS011;22158;59.280;17.806;2023-03-21T10:44:31;1.10;;;0.90;;
35667;SDS011;22158;59.280;17.806;2023-03-21T10:47:03;2.25;;;0.90;;
35667;SDS011;22158;59.280;17.806;2023-03-21T10:49:30;0.75;;;0.65;;
35667;SDS011;22158;59.280;17.806;2023-03-21T10:51:57;1.63;;;0.90;;
35667;SDS011;22158;59.280;17.806;2023-03-21T10:54:30;1.30;;;0.80;;
35667;SDS011;22158;59.280;17.806;2023-03-21T10:57:00;1.20;;;0.77;;
35667;SDS011;22158;59.280;17.806;2023-03-21T10:59:43;1.35;;;0.70;;
35667;SDS011;22158;59.280;17.806;2023-03-21T11:02:27;1.05;;;0.75;;
35667;SDS011;22158;59.280;17.806;2023-03-21T11:04:55;1.55;;;0.77;;
35667;SDS011;22158;59.280;17.806;2023-03-21T11:07:22;2.13;;;0.75;;
35667;SDS011;22158;59.280;17.806;2023-03-21T11:09:56;0.80;;;0.77;;
35667;SDS011;22158;59.280;17.806;2023-03-21T11:12:30;1.48;;;0.82;;
35667;SDS011;22158;59.280;17.806;2023-03-21T11:17:57;0.82;;;0.57;;
35667;SDS011;22158;59.280;17.806;2023-03-21T11:20:23;1.63;;;0.80;;
35667;SDS011;22158;59.280;17.806;2023-03-21T11:22:52;0.88;;;0.70;;
35667;SDS011;22158;59.280;17.806;2023-03-21T11:25:34;0.85;;;0.50;;
35667;SDS011;22158;59.280;17.806;2023-03-21T11:28:11;2.67;;;0.75;;
35667;SDS011;22158;59.280;17.806;2023-03-21T11:30:50;0.57;;;0.55;;
35667;SDS011;22158;59.280;17.806;2023-03-21T11:33:22;0.73;;;0.70;;
35667;SDS011;22158;59.280;17.806;2023-03-21T11:36:02;0.60;;;0.57;;
35667;SDS011;22158;59.280;17.806;2023-03-21T11:38:40;1.65;;;0.60;;
35667;SDS011;22158;59.280;17.806;2023-03-21T11:41:06;4.72;;;0.73;;
35667;SDS011;22158;59.280;17.806;2023-03-21T11:43:36;1.42;;;0.70;;
35667;SDS011;22158;59.280;17.806;2023-03-21T11:48:28;0.85;;;0.68;;
35667;SDS011;22158;59.280;17.806;2023-03-21T11:51:14;1.65;;;0.60;;
35667;SDS011;22158;59.280;17.806;2023-03-21T11:59:49;1.08;;;0.52;;
35667;SDS011;22158;59.280;17.806;2023-03-21T12:13:42;0.95;;;0.68;;
35667;SDS011;22158;59.280;17.806;2023-03-21T12:19:43;0.80;;;0.57;;
35667;SDS011;22158;59.280;17.806;2023-03-21T12:24:58;0.52;;;0.52;;
35667;SDS011;22158;59.280;17.806;2023-03-21T12:36:38;1.52;;;0.73;;
35667;SDS011;22158;59.280;17.806;2023-03-21T12:41:54;1.00;;;0.70;;
35667;SDS011;22158;59.280;17.806;2023-03-21T12:44:21;0.47;;;0.47;;
35667;SDS011;22158;59.280;17.806;2023-03-21T12:46:54;3.03;;;0.68;;
35667;SDS011;22158;59.280;17.806;2023-03-21T12:49:41;0.60;;;0.60;;
35667;SDS011;22158;59.280;17.806;2023-03-21T12:52:11;2.05;;;0.77;;
35667;SDS011;22158;59.280;17.806;2023-03-21T12:54:44;0.60;;;0.57;;
35667;SDS011;22158;59.280;17.806;2023-03-21T12:57:59;3.70;;;0.80;;
35667;SDS011;22158;59.280;17.806;2023-03-21T13:02:58;0.63;;;0.63;;
35667;SDS011;22158;59.280;17.806;2023-03-21T13:05:28;3.65;;;0.88;;
35667;SDS011;22158;59.280;17.806;2023-03-21T13:08:39;0.70;;;0.70;;
35667;SDS011;22158;59.280;17.806;2023-03-21T13:10:50;3.90;;;0.80;;
35667;SDS011;22158;59.280;17.806;2023-03-21T13:23:58;0.80;;;0.57;;
35667;SDS011;22158;59.280;17.806;2023-03-21T13:26:36;0.77;;;0.60;;
35667;SDS011;22158;59.280;17.806;2023-03-21T13:29:11;0.73;;;0.68;;
35667;SDS011;22158;59.280;17.806;2023-03-21T13:31:42;0.63;;;0.63;;
35667;SDS011;22158;59.280;17.806;2023-03-21T13:36:34;0.60;;;0.60;;
35667;SDS011;22158;59.280;17.806;2023-03-21T13:39:03;0.60;;;0.60;;
35667;SDS011;22158;59.280;17.806;2023-03-21T13:51:36;2.45;;;0.50;;
35667;SDS011;22158;59.280;17.806;2023-03-21T13:59:12;6.78;;;1.75;;
35667;SDS011;22158;59.280;17.806;2023-03-21T14:04:35;0.40;;;0.40;;
35667;SDS011;22158;59.280;17.806;2023-03-21T14:07:12;1.23;;;0.60;;
35667;SDS011;22158;59.280;17.806;2023-03-21T14:09:59;3.05;;;0.63;;
35667;SDS011;22158;59.280;17.806;2023-03-21T14:12:29;0.98;;;0.52;;
35667;SDS011;22158;59.280;17.806;2023-03-21T14:15:04;0.63;;;0.50;;
35667;SDS011;22158;59.280;17.806;2023-03-21T14:17:33;0.55;;;0.55;;
35667;SDS011;22158;59.280;17.806;2023-03-21T14:20:18;1.98;;;0.50;;
35667;SDS011;22158;59.280;17.806;2023-03-21T14:22:47;1.40;;;0.63;;
35667;SDS011;22158;59.280;17.806;2023-03-21T14:25:14;1.05;;;0.60;;
35667;SDS011;22158;59.280;17.806;2023-03-21T14:27:42;0.70;;;0.50;;
35667;SDS011;22158;59.280;17.806;2023-03-21T14:30:17;0.80;;;0.70;;
35667;SDS011;22158;59.280;17.806;2023-03-21T14:32:53;0.70;;;0.60;;
35667;SDS011;22158;59.280;17.806;2023-03-21T14:35:20;0.50;;;0.50;;
35667;SDS011;22158;59.280;17.806;2023-03-21T14:37:46;0.50;;;0.50;;
35667;SDS011;22158;59.280;17.806;2023-03-21T14:40:22;1.45;;;0.70;;
35667;SDS011;22158;59.280;17.806;2023-03-21T14:42:50;1.15;;;0.70;;
35667;SDS011;22158;59.280;17.806;2023-03-21T14:45:17;2.90;;;0.80;;
35667;SDS011;22158;59.280;17.806;2023-03-21T14:47:56;1.30;;;0.75;;
35667;SDS011;22158;59.280;17.806;2023-03-21T14:50:27;0.95;;;0.73;;
35667;SDS011;22158;59.280;17.806;2023-03-21T14:52:57;0.80;;;0.73;;
35667;SDS011;22158;59.280;17.806;2023-03-21T14:55:24;1.60;;;1.00;;
35667;SDS011;22158;59.280;17.806;2023-03-21T14:57:50;2.25;;;0.85;;
35667;SDS011;22158;59.280;17.806;2023-03-21T15:00:21;2.08;;;0.85;;
35667;SDS011;22158;59.280;17.806;2023-03-21T15:02:51;0.85;;;0.70;;
35667;SDS011;22158;59.280;17.806;2023-03-21T15:05:20;1.25;;;0.60;;
35667;SDS011;22158;59.280;17.806;2023-03-21T15:07:58;0.82;;;0.80;;
35667;SDS011;22158;59.280;17.806;2023-03-21T15:10:33;1.58;;;0.75;;
35667;SDS011;22158;59.280;17.806;2023-03-21T15:12:59;0.93;;;0.82;;
35667;SDS011;22158;59.280;17.806;2023-03-21T15:15:36;1.02;;;0.57;;
35667;SDS011;22158;59.280;17.806;2023-03-21T15:18:04;6.85;;;2.58;;
35667;SDS011;22158;59.280;17.806;2023-03-21T15:20:31;1.38;;;0.82;;
35667;SDS011;22158;59.280;17.806;2023-03-21T15:23:00;1.83;;;1.00;;
35667;SDS011;22158;59.280;17.806;2023-03-21T15:27:57;0.95;;;0.63;;
35667;SDS011;22158;59.280;17.806;2023-03-21T15:30:28;2.85;;;0.90;;
35667;SDS011;22158;59.280;17.806;2023-03-21T15:32:56;1.55;;;0.80;;
35667;SDS011;22158;59.280;17.806;2023-03-21T15:35:34;2.95;;;0.90;;
35667;SDS011;22158;59.280;17.806;2023-03-21T15:38:02;2.90;;;0.88;;
35667;SDS011;22158;59.280;17.806;2023-03-21T15:40:29;1.98;;;1.10;;
35667;SDS011;22158;59.280;17.806;2023-03-21T15:43:15;4.60;;;0.88;;
35667;SDS011;22158;59.280;17.806;2023-03-21T15:45:53;0.63;;;0.63;;
35667;SDS011;22158;59.280;17.806;2023-03-21T15:48:20;3.30;;;0.90;;
35667;SDS011;22158;59.280;17.806;2023-03-21T15:53:20;1.60;;;0.88;;
35667;SDS011;22158;59.280;17.806;2023-03-21T15:55:51;2.47;;;0.90;;
35667;SDS011;22158;59.280;17.806;2023-03-21T15:58:22;1.67;;;0.82;;
35667;SDS011;22158;59.280;17.806;2023-03-21T16:00:51;2.05;;;0.88;;
35667;SDS011;22158;59.280;17.806;2023-03-21T16:03:32;2.90;;;1.42;;
35667;SDS011;22158;59.280;17.806;2023-03-21T16:06:34;2.80;;;0.95;;
35667;SDS011;22158;59.280;17.806;2023-03-21T16:09:17;1.60;;;0.80;;
35667;SDS011;22158;59.280;17.806;2023-03-21T16:11:54;5.65;;;0.80;;
35667;SDS011;22158;59.280;17.806;2023-03-21T16:14:22;3.25;;;0.90;;
35667;SDS011;22158;59.280;17.806;2023-03-21T16:16:51;0.68;;;0.65;;
35667;SDS011;22158;59.280;17.806;2023-03-21T16:19:17;1.88;;;0.90;;
35667;SDS011;22158;59.280;17.806;2023-03-21T16:21:43;1.75;;;0.95;;
35667;SDS011;22158;59.280;17.806;2023-03-21T16:24:10;1.30;;;0.82;;
35667;SDS011;22158;59.280;17.806;2023-03-21T16:26:47;5.50;;;1.40;;
35667;SDS011;22158;59.280;17.806;2023-03-21T16:29:16;3.60;;;1.10;;
35667;SDS011;22158;59.280;17.806;2023-03-21T16:31:43;1.30;;;0.90;;
35667;SDS011;22158;59.280;17.806;2023-03-21T16:34:13;1.20;;;1.00;;
35667;SDS011;22158;59.280;17.806;2023-03-21T16:36:39;3.30;;;1.20;;
35667;SDS011;22158;59.280;17.806;2023-03-21T16:39:18;1.77;;;1.00;;
35667;SDS011;22158;59.280;17.806;2023-03-21T16:41:45;1.20;;;0.98;;
35667;SDS011;22158;59.280;17.806;2023-03-21T16:44:11;1.65;;;1.08;;
35667;SDS011;22158;59.280;17.806;2023-03-21T16:46:37;1.40;;;1.10;;
35667;SDS011;22158;59.280;17.806;2023-03-21T16:49:03;2.50;;;1.33;;
35667;SDS011;22158;59.280;17.806;2023-03-21T16:51:30;3.33;;;1.13;;
35667;SDS011;22158;59.280;17.806;2023-03-21T16:53:58;1.60;;;1.00;;
35667;SDS011;22158;59.280;17.806;2023-03-21T16:59:31;2.28;;;1.13;;
35667;SDS011;22158;59.280;17.806;2023-03-21T17:01:57;2.78;;;1.67;;
35667;SDS011;22158;59.280;17.806;2023-03-21T17:04:23;3.05;;;1.38;;
35667;SDS011;22158;59.280;17.806;2023-03-21T17:06:52;1.73;;;1.00;;
35667;SDS011;22158;59.280;17.806;2023-03-21T17:09:20;1.88;;;1.13;;
35667;SDS011;22158;59.280;17.806;2023-03-21T17:11:47;2.28;;;1.30;;
35667;SDS011;22158;59.280;17.806;2023-03-21T17:14:13;2.08;;;1.05;;
35667;SDS011;22158;59.280;17.806;2023-03-21T17:16:43;1.23;;;1.00;;
35667;SDS011;22158;59.280;17.806;2023-03-21T17:19:13;2.45;;;1.20;;
35667;SDS011;22158;59.280;17.806;2023-03-21T17:21:44;1.10;;;0.75;;
35667;SDS011;22158;59.280;17.806;2023-03-21T17:24:10;3.88;;;1.05;;
35667;SDS011;22158;59.280;17.806;2023-03-21T17:26:36;1.65;;;1.20;;
35667;SDS011;22158;59.280;17.806;2023-03-21T17:29:02;2.22;;;1.00;;
35667;SDS011;22158;59.280;17.806;2023-03-21T17:31:30;3.63;;;1.00;;
35667;SDS011;22158;59.280;17.806;2023-03-21T17:33:58;4.65;;;1.10;;
35667;SDS011;22158;59.280;17.806;2023-03-21T17:36:34;2.35;;;1.10;;
35667;SDS011;22158;59.280;17.806;2023-03-21T17:39:05;1.95;;;1.00;;
35667;SDS011;22158;59.280;17.806;2023-03-21T17:41:32;3.50;;;1.35;;
35667;SDS011;22158;59.280;17.806;2023-03-21T17:43:58;2.78;;;1.02;;
35667;SDS011;22158;59.280;17.806;2023-03-21T17:46:25;2.10;;;1.08;;
35667;SDS011;22158;59.280;17.806;2023-03-21T17:48:52;1.27;;;0.95;;
35667;SDS011;22158;59.280;17.806;2023-03-21T17:51:18;2.55;;;1.02;;
35667;SDS011;22158;59.280;17.806;2023-03-21T17:53:47;3.65;;;1.20;;
35667;SDS011;22158;59.280;17.806;2023-03-21T17:56:15;1.80;;;1.10;;
35667;SDS011;22158;59.280;17.806;2023-03-21T17:58:44;2.55;;;1.40;;
35667;SDS011;22158;59.280;17.806;2023-03-21T18:01:11;2.47;;;0.90;;
35667;SDS011;22158;59.280;17.806;2023-03-21T18:03:37;2.75;;;1.17;;
35667;SDS011;22158;59.280;17.806;2023-03-21T18:06:02;2.28;;;1.10;;
35667;SDS011;22158;59.280;17.806;2023-03-21T18:08:29;1.52;;;1.20;;
35667;SDS011;22158;59.280;17.806;2023-03-21T18:10:55;4.32;;;1.55;;
35667;SDS011;22158;59.280;17.806;2023-03-21T18:13:20;3.45;;;1.20;;
35667;SDS011;22158;59.280;17.806;2023-03-21T18:15:46;2.00;;;1.17;;
35667;SDS011;22158;59.280;17.806;2023-03-21T18:18:14;1.85;;;1.25;;
35667;SDS011;22158;59.280;17.806;2023-03-21T18:20:40;3.72;;;1.50;;
35667;SDS011;22158;59.280;17.806;2023-03-21T18:23:07;2.30;;;1.40;;
35667;SDS011;22158;59.280;17.806;2023-03-21T18:25:33;2.75;;;1.10;;
35667;SDS011;22158;59.280;17.806;2023-03-21T18:27:58;3.60;;;1.35;;
35667;SDS011;22158;59.280;17.806;2023-03-21T18:30:24;2.97;;;0.95;;
35667;SDS011;22158;59.280;17.806;2023-03-21T18:32:50;2.00;;;1.10;;
35667;SDS011;22158;59.280;17.806;2023-03-21T18:35:16;1.95;;;1.45;;
35667;SDS011;22158;59.280;17.806;2023-03-21T18:37:46;1.88;;;1.30;;
35667;SDS011;22158;59.280;17.806;2023-03-21T18:40:12;1.23;;;1.05;;
35667;SDS011;22158;59.280;17.806;2023-03-21T18:42:38;3.90;;;1.30;;
35667;SDS011;22158;59.280;17.806;2023-03-21T18:45:05;2.13;;;1.38;;
35667;SDS011;22158;59.280;17.806;2023-03-21T18:47:32;2.25;;;1.30;;
35667;SDS011;22158;59.280;17.806;2023-03-21T18:49:58;2.35;;;1.35;;
35667;SDS011;22158;59.280;17.806;2023-03-21T18:52:24;2.38;;;1.27;;
35667;SDS011;22158;59.280;17.806;2023-03-21T18:54:51;1.95;;;1.38;;
35667;SDS011;22158;59.280;17.806;2023-03-21T18:57:17;2.97;;;1.52;;
35667;SDS011;22158;59.280;17.806;2023-03-21T18:59:43;1.92;;;1.38;;
35667;SDS011;22158;59.280;17.806;2023-03-21T19:02:10;2.50;;;1.10;;
35667;SDS011;22158;59.280;17.806;2023-03-21T19:04:38;10.20;;;1.80;;
35667;SDS011;22158;59.280;17.806;2023-03-21T19:07:03;1.70;;;1.05;;
35667;SDS011;22158;59.280;17.806;2023-03-21T19:09:29;8.38;;;1.80;;
35667;SDS011;22158;59.280;17.806;2023-03-21T19:11:56;4.00;;;1.40;;
35667;SDS011;22158;59.280;17.806;2023-03-21T19:14:22;3.35;;;1.73;;
35667;SDS011;22158;59.280;17.806;2023-03-21T19:16:47;2.38;;;1.80;;
35667;SDS011;22158;59.280;17.806;2023-03-21T19:19:13;3.45;;;1.90;;
35667;SDS011;22158;59.280;17.806;2023-03-21T19:21:42;2.38;;;1.65;;
35667;SDS011;22158;59.280;17.806;2023-03-21T19:24:10;1.92;;;1.55;;
35667;SDS011;22158;59.280;17.806;2023-03-21T19:26:36;2.85;;;1.67;;
35667;SDS011;22158;59.280;17.806;2023-03-21T19:29:02;3.47;;;1.60;;
35667;SDS011;22158;59.280;17.806;2023-03-21T19:31:27;1.85;;;1.70;;
35667;SDS011;22158;59.280;17.806;2023-03-21T19:33:53;2.53;;;1.50;;
35667;SDS011;22158;59.280;17.806;2023-03-21T19:36:19;3.45;;;1.80;;
35667;SDS011;22158;59.280;17.806;2023-03-21T19:38:45;2.78;;;1.67;;
35667;SDS011;22158;59.280;17.806;2023-03-21T19:41:11;5.28;;;2.05;;
35667;SDS011;22158;59.280;17.806;2023-03-21T19:43:36;3.00;;;1.60;;
35667;SDS011;22158;59.280;17.806;2023-03-21T19:46:02;2.20;;;1.75;;
35667;SDS011;22158;59.280;17.806;2023-03-21T19:48:28;5.78;;;1.83;;
35667;SDS011;22158;59.280;17.806;2023-03-21T19:50:54;3.92;;;2.17;;
35667;SDS011;22158;59.280;17.806;2023-03-21T19:53:20;2.50;;;1.92;;
35667;SDS011;22158;59.280;17.806;2023-03-21T19:55:49;4.93;;;2.40;;
35667;SDS011;22158;59.280;17.806;2023-03-21T19:58:16;3.97;;;2.28;;
35667;SDS011;22158;59.280;17.806;2023-03-21T20:00:44;6.20;;;2.63;;
35667;SDS011;22158;59.280;17.806;2023-03-21T20:03:11;4.18;;;2.33;;
35667;SDS011;22158;59.280;17.806;2023-03-21T20:05:37;3.97;;;2.22;;
35667;SDS011;22158;59.280;17.806;2023-03-21T20:08:03;3.63;;;2.42;;
35667;SDS011;22158;59.280;17.806;2023-03-21T20:10:29;4.03;;;2.40;;
35667;SDS011;22158;59.280;17.806;2023-03-21T20:12:54;4.30;;;2.65;;
35667;SDS011;22158;59.280;17.806;2023-03-21T20:15:20;5.18;;;2.72;;
35667;SDS011;22158;59.280;17.806;2023-03-21T20:17:47;3.10;;;2.50;;
35667;SDS011;22158;59.280;17.806;2023-03-21T20:20:13;4.35;;;3.00;;
35667;SDS011;22158;59.280;17.806;2023-03-21T20:22:41;6.03;;;2.92;;
35667;SDS011;22158;59.280;17.806;2023-03-21T20:25:12;7.03;;;3.45;;
35667;SDS011;22158;59.280;17.806;2023-03-21T20:27:39;7.38;;;3.30;;
35667;SDS011;22158;59.280;17.806;2023-03-21T20:30:07;4.45;;;3.33;;
35667;SDS011;22158;59.280;17.806;2023-03-21T20:32:35;4.90;;;3.05;;
35667;SDS011;22158;59.280;17.806;2023-03-21T20:35:02;5.78;;;3.00;;
35667;SDS011;22158;59.280;17.806;2023-03-21T20:37:31;3.88;;;2.88;;
35667;SDS011;22158;59.280;17.806;2023-03-21T20:39:58;5.05;;;3.15;;
35667;SDS011;22158;59.280;17.806;2023-03-21T20:42:24;3.55;;;2.95;;
35667;SDS011;22158;59.280;17.806;2023-03-21T20:44:49;3.90;;;2.75;;
35667;SDS011;22158;59.280;17.806;2023-03-21T20:47:15;5.97;;;3.95;;
35667;SDS011;22158;59.280;17.806;2023-03-21T20:49:41;6.00;;;3.50;;
35667;SDS011;22158;59.280;17.806;2023-03-21T20:52:07;5.97;;;3.00;;
35667;SDS011;22158;59.280;17.806;2023-03-21T20:54:32;5.65;;;2.78;;
35667;SDS011;22158;59.280;17.806;2023-03-21T20:56:58;4.13;;;3.13;;
35667;SDS011;22158;59.280;17.806;2023-03-21T20:59:25;5.38;;;3.25;;
35667;SDS011;22158;59.280;17.806;2023-03-21T21:01:51;3.75;;;2.97;;
35667;SDS011;22158;59.280;17.806;2023-03-21T21:04:17;8.30;;;3.28;;
35667;SDS011;22158;59.280;17.806;2023-03-21T21:06:44;5.00;;;3.00;;